Time;durP1;ratioP1;P1;durP2;ratioP2;P2;SDS_P1;SDS_P2;PMS_P1;PMS_P2;Temp;Humidity;BMP_temperature;BMP_pressure;BME280_temperature;BME280_humidity;BME280_pressure;Samples;Min_cycle;Max_cycle;Signal;HPM_P1;HPM_P2
2021/10/26 00:01:44;;;;;;;18.50;9.23;;;11.50;99.90;;;;;;5113664;28;20257;-66
2021/10/26 00:04:10;;;;;;;15.43;9.27;;;11.50;99.90;;;;;;5114471;28;20027;-65
2021/10/26 00:06:37;;;;;;;13.55;9.18;;;11.60;99.90;;;;;;5114345;28;20115;-65
2021/10/26 00:09:05;;;;;;;17.95;9.85;;;11.60;99.90;;;;;;5113901;28;20106;-66
2021/10/26 00:11:32;;;;;;;19.42;10.70;;;11.60;99.90;;;;;;5112831;28;20353;-65
2021/10/26 00:13:58;;;;;;;15.43;9.55;;;11.60;99.90;;;;;;5113732;28;20050;-66
2021/10/26 00:16:23;;;;;;;16.10;9.30;;;11.60;99.90;;;;;;5113570;28;20365;-66
2021/10/26 00:18:50;;;;;;;14.73;9.80;;;11.60;99.90;;;;;;5113181;28;20044;-66
2021/10/26 00:21:16;;;;;;;13.60;9.33;;;11.60;99.90;;;;;;5113413;28;20080;-66
2021/10/26 00:23:42;;;;;;;15.95;9.77;;;11.60;99.90;;;;;;5113385;28;20019;-66
2021/10/26 00:26:08;;;;;;;14.13;9.30;;;11.60;99.90;;;;;;5113470;28;20042;-66
2021/10/26 00:28:34;;;;;;;16.55;9.80;;;11.60;99.90;;;;;;5113935;28;20123;-66
2021/10/26 00:31:01;;;;;;;14.35;9.75;;;11.60;99.90;;;;;;5113658;28;20027;-66
2021/10/26 00:33:29;;;;;;;17.70;9.50;;;11.70;99.90;;;;;;5112038;28;20458;-66
2021/10/26 00:35:54;;;;;;;15.50;9.82;;;11.70;99.90;;;;;;5113653;28;20457;-66
2021/10/26 00:38:20;;;;;;;13.27;9.00;;;11.70;99.90;;;;;;5113300;28;20097;-66
2021/10/26 00:40:46;;;;;;;16.00;9.20;;;11.70;99.90;;;;;;5113383;28;20036;-66
2021/10/26 00:43:13;;;;;;;17.45;9.07;;;11.70;99.90;;;;;;5113222;28;20487;-66
2021/10/26 00:45:39;;;;;;;14.73;8.88;;;11.70;99.90;;;;;;5113291;28;20346;-66
2021/10/26 00:48:07;;;;;;;16.25;9.35;;;11.70;99.90;;;;;;5113276;28;20023;-66
2021/10/26 00:50:32;;;;;;;14.02;9.25;;;11.70;99.90;;;;;;5113190;28;20504;-66
2021/10/26 00:52:58;;;;;;;13.25;9.13;;;11.80;99.90;;;;;;5112123;28;20134;-66
2021/10/26 00:55:24;;;;;;;13.52;8.80;;;11.80;99.90;;;;;;5113261;28;20034;-66
2021/10/26 00:57:51;;;;;;;14.68;9.20;;;11.80;99.90;;;;;;5113155;28;20027;-66
2021/10/26 01:00:20;;;;;;;15.35;9.38;;;11.80;99.90;;;;;;5113089;28;20035;-66
2021/10/26 01:02:46;;;;;;;13.82;9.10;;;11.70;99.90;;;;;;5113263;28;20028;-66
2021/10/26 01:05:13;;;;;;;16.63;9.07;;;11.70;99.90;;;;;;5112960;28;20019;-66
2021/10/26 01:07:40;;;;;;;14.75;9.88;;;11.80;99.90;;;;;;5113431;28;20123;-66
2021/10/26 01:10:07;;;;;;;14.57;9.52;;;11.80;99.90;;;;;;5111680;28;20030;-66
2021/10/26 01:12:34;;;;;;;12.45;9.10;;;11.80;99.90;;;;;;5112922;28;20024;-66
2021/10/26 01:14:59;;;;;;;13.90;9.60;;;11.80;99.90;;;;;;5112752;28;20086;-66
2021/10/26 01:17:25;;;;;;;14.75;9.05;;;11.80;99.90;;;;;;5113124;28;20028;-67
2021/10/26 01:19:55;;;;;;;14.07;8.70;;;11.70;99.90;;;;;;5112985;28;20395;-67
2021/10/26 01:22:27;;;;;;;17.08;9.10;;;11.80;99.90;;;;;;5113185;28;20469;-67
2021/10/26 01:24:53;;;;;;;14.43;9.00;;;11.80;99.90;;;;;;5113057;28;20038;-66
2021/10/26 01:27:20;;;;;;;13.07;9.18;;;11.80;99.90;;;;;;5113003;28;20027;-66
2021/10/26 01:29:46;;;;;;;17.05;10.20;;;11.80;99.90;;;;;;5113307;28;20594;-66
2021/10/26 01:32:14;;;;;;;15.60;9.10;;;11.70;99.90;;;;;;5116522;28;20114;-66
2021/10/26 01:34:40;;;;;;;14.63;9.52;;;11.70;99.90;;;;;;5116415;28;20467;-66
2021/10/26 01:37:08;;;;;;;15.18;10.07;;;11.70;99.90;;;;;;5116589;28;20392;-66
2021/10/26 01:39:34;;;;;;;15.75;8.90;;;11.60;99.90;;;;;;5116801;28;20464;-66
2021/10/26 01:42:00;;;;;;;14.20;9.18;;;11.60;99.90;;;;;;5116844;28;20030;-66
2021/10/26 01:44:27;;;;;;;17.27;9.55;;;11.60;99.90;;;;;;5116812;28;20102;-66
2021/10/26 01:46:53;;;;;;;15.90;9.23;;;11.60;99.90;;;;;;5116393;28;20020;-66
2021/10/26 01:49:20;;;;;;;15.10;8.70;;;11.60;99.90;;;;;;5120305;28;20063;-66
2021/10/26 01:51:46;;;;;;;17.30;8.65;;;11.60;99.90;;;;;;5121560;28;20045;-66
2021/10/26 01:54:13;;;;;;;11.55;8.60;;;11.60;99.90;;;;;;5122006;28;20045;-66
2021/10/26 01:56:40;;;;;;;13.93;9.05;;;11.60;99.90;;;;;;5121019;28;20032;-66
2021/10/26 01:59:05;;;;;;;12.93;9.30;;;11.50;99.90;;;;;;5120212;28;20052;-66
2021/10/26 02:01:31;;;;;;;16.70;8.63;;;11.50;99.90;;;;;;5118929;28;20028;-66
2021/10/26 02:03:57;;;;;;;13.17;8.80;;;11.50;99.90;;;;;;5117063;28;20028;-66
2021/10/26 02:06:22;;;;;;;14.52;9.02;;;11.50;99.90;;;;;;5116905;28;20038;-66
2021/10/26 02:08:48;;;;;;;17.10;9.93;;;11.50;99.90;;;;;;5117790;28;20031;-66
2021/10/26 02:11:14;;;;;;;14.07;9.53;;;11.50;99.90;;;;;;5117102;28;20012;-66
2021/10/26 02:13:40;;;;;;;14.85;9.32;;;11.50;99.90;;;;;;5116754;28;20066;-66
2021/10/26 02:16:06;;;;;;;13.82;9.57;;;11.50;99.90;;;;;;5117043;28;20031;-66
2021/10/26 02:18:32;;;;;;;14.97;8.90;;;11.50;99.90;;;;;;5115970;28;20015;-66
2021/10/26 02:20:58;;;;;;;13.35;9.27;;;11.50;99.90;;;;;;5116679;28;20176;-66
2021/10/26 02:23:25;;;;;;;15.52;8.70;;;11.50;99.90;;;;;;5115987;28;20452;-66
2021/10/26 02:25:51;;;;;;;17.13;10.23;;;11.50;99.90;;;;;;5116257;28;20080;-66
2021/10/26 02:28:16;;;;;;;16.40;9.53;;;11.50;99.90;;;;;;5116657;28;20430;-66
2021/10/26 02:30:43;;;;;;;15.52;9.00;;;11.40;99.90;;;;;;5116509;28;20826;-65
2021/10/26 02:33:09;;;;;;;15.30;9.90;;;11.50;99.90;;;;;;5117252;28;20080;-65
2021/10/26 02:35:35;;;;;;;15.68;9.40;;;11.40;99.90;;;;;;5117156;28;20024;-65
2021/10/26 02:38:01;;;;;;;15.60;8.40;;;11.50;99.90;;;;;;5116090;28;20031;-66
2021/10/26 02:40:27;;;;;;;17.13;9.52;;;11.50;99.90;;;;;;5116109;28;20027;-65
2021/10/26 02:42:53;;;;;;;12.18;8.70;;;11.50;99.90;;;;;;5114830;28;20024;-66
2021/10/26 02:45:19;;;;;;;15.60;9.50;;;11.50;99.90;;;;;;5115454;28;20081;-66
2021/10/26 02:47:45;;;;;;;14.40;9.25;;;11.50;99.90;;;;;;5115514;28;20328;-66
2021/10/26 02:50:12;;;;;;;18.40;9.73;;;11.50;99.90;;;;;;5115809;28;20024;-65
2021/10/26 02:52:38;;;;;;;12.20;8.75;;;11.60;99.90;;;;;;5115265;28;20046;-66
2021/10/26 02:55:04;;;;;;;;;;;11.60;99.90;;;;;;5115450;28;20073;-66
2021/10/26 02:57:30;;;;;;;16.52;8.73;;;11.60;99.90;;;;;;5115096;28;20356;-66
2021/10/26 02:59:55;;;;;;;17.00;9.90;;;11.60;99.90;;;;;;5115221;28;20032;-66
2021/10/26 03:02:21;;;;;;;12.90;8.90;;;11.60;99.90;;;;;;5115231;28;20053;-66
2021/10/26 03:04:47;;;;;;;15.37;9.93;;;11.60;99.90;;;;;;5115036;28;20032;-66
2021/10/26 03:07:12;;;;;;;17.20;9.83;;;11.60;99.90;;;;;;5115290;28;20358;-66
2021/10/26 03:09:38;;;;;;;14.23;8.83;;;11.60;99.90;;;;;;5115174;28;20067;-66
2021/10/26 03:12:04;;;;;;;18.53;8.80;;;11.60;99.90;;;;;;5115074;28;20031;-65
2021/10/26 03:14:29;;;;;;;12.52;9.05;;;11.60;99.90;;;;;;5114690;28;20031;-65
2021/10/26 03:16:55;;;;;;;14.27;9.07;;;11.60;99.90;;;;;;5115091;28;20496;-66
2021/10/26 03:19:20;;;;;;;16.30;8.60;;;11.60;99.90;;;;;;5115525;28;20159;-66
2021/10/26 03:21:46;;;;;;;15.73;9.20;;;11.60;99.90;;;;;;5114943;28;20121;-65
2021/10/26 03:24:12;;;;;;;14.55;9.30;;;11.70;99.90;;;;;;5114566;28;20484;-65
2021/10/26 03:26:38;;;;;;;14.05;9.00;;;11.70;99.90;;;;;;5114675;28;20068;-66
2021/10/26 03:29:04;;;;;;;13.90;8.98;;;11.70;99.90;;;;;;5114670;28;20098;-65
2021/10/26 03:31:29;;;;;;;15.27;8.93;;;11.70;99.90;;;;;;5114424;28;20080;-65
2021/10/26 03:33:55;;;;;;;14.50;8.63;;;11.70;99.90;;;;;;5113045;28;20030;-65
2021/10/26 03:36:21;;;;;;;13.43;7.87;;;11.70;99.90;;;;;;5114604;28;20261;-66
2021/10/26 03:38:48;;;;;;;13.10;8.05;;;11.70;99.90;;;;;;5115494;28;20098;-65
2021/10/26 03:41:13;;;;;;;15.25;8.15;;;11.70;99.90;;;;;;5115930;28;20024;-67
2021/10/26 03:43:39;;;;;;;15.00;8.80;;;11.70;99.90;;;;;;5117747;28;20048;-66
2021/10/26 03:46:05;;;;;;;13.03;8.67;;;11.60;99.90;;;;;;5114595;28;20265;-66
2021/10/26 03:48:31;;;;;;;11.60;8.02;;;11.60;99.90;;;;;;5114073;28;20080;-67
2021/10/26 03:50:56;;;;;;;12.07;8.63;;;11.60;99.90;;;;;;5114579;28;20084;-66
2021/10/26 03:53:22;;;;;;;15.57;8.13;;;11.60;99.90;;;;;;5113613;28;20028;-67
2021/10/26 03:55:48;;;;;;;12.87;7.63;;;11.60;99.90;;;;;;5114222;28;20050;-67
2021/10/26 03:58:14;;;;;;;;;;;11.60;99.90;;;;;;5114720;28;20023;-67
2021/10/26 04:00:39;;;;;;;11.98;8.15;;;11.60;99.90;;;;;;5114250;28;19910;-67
2021/10/26 04:03:05;;;;;;;12.20;8.47;;;11.60;99.90;;;;;;5114212;28;20120;-67
2021/10/26 04:08:33;;;;;;;12.48;8.43;;;11.50;99.90;;;;;;5113841;28;20039;-67
2021/10/26 04:10:57;;;;;;;13.60;8.23;;;11.50;99.90;;;;;;5113468;28;20036;-67
2021/10/26 04:13:24;;;;;;;13.32;7.85;;;11.50;99.90;;;;;;5113603;28;20020;-66
2021/10/26 04:15:51;;;;;;;21.35;9.30;;;11.50;99.90;;;;;;5113561;28;20092;-67
2021/10/26 04:18:17;;;;;;;14.20;8.05;;;11.50;99.90;;;;;;5113656;28;20020;-67
2021/10/26 04:20:43;;;;;;;12.60;8.65;;;11.50;99.90;;;;;;5113430;28;20030;-67
2021/10/26 04:23:09;;;;;;;16.13;9.23;;;11.50;99.90;;;;;;5113547;28;20023;-66
2021/10/26 04:25:35;;;;;;;16.58;9.20;;;11.50;99.90;;;;;;5113497;28;20095;-67
2021/10/26 04:28:01;;;;;;;15.68;8.32;;;11.50;99.90;;;;;;5113586;28;20034;-67
2021/10/26 04:30:28;;;;;;;12.77;7.90;;;11.50;99.90;;;;;;5113437;28;20023;-66
2021/10/26 04:32:54;;;;;;;20.15;8.60;;;11.50;99.90;;;;;;5114036;28;20016;-66
2021/10/26 04:35:20;;;;;;;20.38;9.02;;;11.40;99.90;;;;;;5113374;28;20027;-66
2021/10/26 04:37:45;;;;;;;13.40;8.32;;;11.40;99.90;;;;;;5113566;28;20450;-67
2021/10/26 04:40:12;;;;;;;12.20;7.38;;;11.30;99.90;;;;;;5114078;28;20039;-67
2021/10/26 04:42:38;;;;;;;13.20;8.35;;;11.30;99.90;;;;;;5113948;28;20035;-67
2021/10/26 04:45:05;;;;;;;15.35;8.90;;;11.30;99.90;;;;;;5113604;28;20027;-67
2021/10/26 04:47:31;;;;;;;11.40;8.70;;;11.30;99.90;;;;;;5113330;28;20042;-68
2021/10/26 04:49:57;;;;;;;12.88;7.55;;;11.30;99.90;;;;;;5113501;28;20027;-67
2021/10/26 04:52:23;;;;;;;12.70;8.20;;;11.30;99.90;;;;;;5113100;28;20026;-68
2021/10/26 04:54:48;;;;;;;13.93;8.15;;;11.20;99.90;;;;;;5113329;28;20660;-67
2021/10/26 04:57:15;;;;;;;14.98;9.63;;;11.20;99.90;;;;;;5111889;28;20425;-67
2021/10/26 04:59:41;;;;;;;15.30;9.27;;;11.20;99.90;;;;;;5113156;28;20107;-67
2021/10/26 05:02:07;;;;;;;13.73;9.05;;;11.20;99.90;;;;;;5113189;28;20047;-67
2021/10/26 05:04:32;;;;;;;15.57;8.38;;;11.20;99.90;;;;;;5113383;28;20103;-68
2021/10/26 05:06:58;;;;;;;15.57;9.02;;;11.20;99.90;;;;;;5117166;28;20040;-70
2021/10/26 05:09:24;;;;;;;16.30;9.60;;;11.20;99.90;;;;;;5117055;28;20024;-67
2021/10/26 05:11:50;;;;;;;16.60;9.07;;;11.20;99.90;;;;;;5115780;28;20027;-67
2021/10/26 05:14:16;;;;;;;15.95;9.57;;;11.10;99.90;;;;;;5116886;28;20032;-67
2021/10/26 05:16:44;;;;;;;14.18;8.98;;;11.10;99.90;;;;;;5117091;28;20024;-67
2021/10/26 05:19:11;;;;;;;14.45;8.90;;;11.10;99.90;;;;;;5116980;28;20065;-66
2021/10/26 05:21:36;;;;;;;16.67;9.60;;;11.10;99.90;;;;;;5116883;28;20465;-66
2021/10/26 05:24:02;;;;;;;16.33;8.93;;;11.00;99.90;;;;;;5115536;28;20039;-66
2021/10/26 05:26:28;;;;;;;17.80;10.63;;;11.00;99.90;;;;;;5116855;28;20057;-66
2021/10/26 05:28:54;;;;;;;16.20;9.88;;;11.00;99.90;;;;;;5117315;28;20473;-66
2021/10/26 05:31:20;;;;;;;18.15;10.82;;;10.90;99.90;;;;;;5117197;28;20030;-68
2021/10/26 05:33:46;;;;;;;18.05;10.38;;;11.00;99.90;;;;;;5115375;28;20063;-67
2021/10/26 05:36:13;;;;;;;16.85;10.45;;;11.00;99.90;;;;;;5116974;28;20478;-67
2021/10/26 05:38:38;;;;;;;14.10;9.48;;;11.00;99.90;;;;;;5116644;28;20036;-67
2021/10/26 05:41:04;;;;;;;17.33;10.10;;;11.00;99.90;;;;;;5116552;28;20072;-67
2021/10/26 05:43:30;;;;;;;12.90;8.90;;;11.10;99.90;;;;;;5115009;28;20498;-67
2021/10/26 05:45:57;;;;;;;14.32;9.50;;;11.10;99.90;;;;;;5116724;28;20023;-68
2021/10/26 05:48:22;;;;;;;20.67;9.73;;;11.10;99.90;;;;;;5117703;28;20039;-69
2021/10/26 05:50:48;;;;;;;17.23;11.00;;;11.10;99.90;;;;;;5115089;28;20341;-68
2021/10/26 05:53:14;;;;;;;14.83;10.37;;;11.20;99.90;;;;;;5115925;28;20024;-68
2021/10/26 05:55:42;;;;;;;15.70;9.02;;;11.20;99.90;;;;;;5116560;28;20734;-68
2021/10/26 05:58:11;;;;;;;14.65;9.75;;;11.20;99.90;;;;;;5116666;28;20070;-68
2021/10/26 06:00:38;;;;;;;14.73;9.75;;;11.20;99.90;;;;;;5116140;28;20019;-69
2021/10/26 06:03:03;;;;;;;;;;;11.20;99.90;;;;;;5116721;28;20349;-68
2021/10/26 06:05:29;;;;;;;13.65;9.45;;;11.30;99.90;;;;;;5114712;28;19904;-68
2021/10/26 06:07:56;;;;;;;19.50;9.40;;;11.30;99.90;;;;;;5116260;28;20449;-68
2021/10/26 06:10:22;;;;;;;14.18;8.25;;;11.30;99.90;;;;;;5116118;28;20088;-69
2021/10/26 06:12:53;;;;;;;16.70;9.82;;;11.30;99.90;;;;;;5114791;28;20023;-68
2021/10/26 06:15:19;;;;;;;15.98;9.98;;;11.40;99.90;;;;;;5115786;28;20069;-69
2021/10/26 06:17:45;;;;;;;19.33;9.47;;;11.40;99.90;;;;;;5114898;28;20032;-68
2021/10/26 06:20:10;;;;;;;18.20;9.90;;;11.40;99.90;;;;;;5115896;28;20038;-68
2021/10/26 06:22:36;;;;;;;14.20;9.65;;;11.40;99.90;;;;;;5115981;28;20055;-68
2021/10/26 06:25:03;;;;;;;14.55;9.07;;;11.40;99.90;;;;;;5116078;28;20039;-68
2021/10/26 06:27:29;;;;;;;13.32;9.32;;;11.40;99.90;;;;;;5115573;28;20395;-67
2021/10/26 06:29:55;;;;;;;16.33;8.87;;;11.40;99.90;;;;;;5115807;28;20026;-68
2021/10/26 06:32:21;;;;;;;;;;;11.40;99.90;;;;;;5115987;28;20016;-69
2021/10/26 06:34:46;;;;;;;17.48;9.20;;;11.40;99.90;;;;;;5115538;28;19903;-68
2021/10/26 06:37:12;;;;;;;15.03;9.80;;;11.40;99.90;;;;;;5115471;28;20027;-69
2021/10/26 06:39:38;;;;;;;17.77;9.57;;;11.40;99.90;;;;;;5115495;28;20090;-69
2021/10/26 06:42:04;;;;;;;17.42;9.20;;;11.40;99.90;;;;;;5115294;28;20028;-69
2021/10/26 06:44:30;;;;;;;15.05;8.85;;;11.40;99.90;;;;;;5115143;28;20028;-69
2021/10/26 06:46:55;;;;;;;15.30;9.60;;;11.40;99.90;;;;;;5115270;28;20027;-69
2021/10/26 06:49:21;;;;;;;16.27;10.38;;;11.50;99.90;;;;;;5115263;28;20024;-68
2021/10/26 06:51:47;;;;;;;17.42;9.82;;;11.60;99.90;;;;;;5114093;28;20034;-69
2021/10/26 06:54:12;;;;;;;17.70;9.67;;;11.50;99.90;;;;;;5113747;28;20495;-69
2021/10/26 06:56:38;;;;;;;16.47;9.73;;;11.50;99.90;;;;;;5113365;28;20096;-69
2021/10/26 06:59:04;;;;;;;13.80;9.32;;;11.60;99.90;;;;;;5114563;28;20019;-69
2021/10/26 07:01:29;;;;;;;16.97;10.23;;;11.60;99.90;;;;;;5114896;28;20028;-69
2021/10/26 07:03:55;;;;;;;18.07;10.37;;;11.70;99.90;;;;;;5114724;28;20039;-69
2021/10/26 07:06:21;;;;;;;18.90;10.17;;;11.80;99.90;;;;;;5114723;28;20110;-69
2021/10/26 07:08:47;;;;;;;18.02;9.77;;;11.80;99.90;;;;;;5114790;28;20278;-69
2021/10/26 07:11:12;;;;;;;20.27;10.00;;;11.90;99.90;;;;;;5114991;28;20379;-69
2021/10/26 07:13:39;;;;;;;18.30;10.77;;;11.90;99.90;;;;;;5114497;28;20032;-69
2021/10/26 07:16:08;;;;;;;17.77;10.38;;;12.00;99.90;;;;;;5113281;28;20372;-69
2021/10/26 07:18:34;;;;;;;18.17;10.13;;;11.90;99.90;;;;;;5114672;28;20096;-69
2021/10/26 07:21:00;;;;;;;18.27;10.82;;;12.00;99.90;;;;;;5114355;28;20031;-67
2021/10/26 07:23:25;;;;;;;16.33;10.60;;;12.00;99.90;;;;;;5113166;28;20031;-68
2021/10/26 07:25:52;;;;;;;19.92;10.45;;;12.10;99.90;;;;;;5114451;28;20448;-68
2021/10/26 07:28:18;;;;;;;;;;;12.20;99.90;;;;;;5113093;28;20024;-68
2021/10/26 07:30:45;;;;;;;17.67;10.18;;;12.20;99.90;;;;;;5114275;28;19911;-68
2021/10/26 07:33:18;;;;;;;16.13;9.98;;;12.20;99.90;;;;;;5114083;28;20043;-68
2021/10/26 07:35:46;;;;;;;19.13;10.98;;;12.30;99.90;;;;;;5113925;28;20023;-68
2021/10/26 07:38:14;;;;;;;16.92;10.73;;;12.40;99.90;;;;;;5114170;28;20130;-68
2021/10/26 07:40:41;;;;;;;19.25;10.75;;;12.50;99.90;;;;;;5114204;28;20380;-68
2021/10/26 07:43:06;;;;;;;18.80;11.10;;;12.60;99.90;;;;;;5113956;28;20035;-68
2021/10/26 07:45:32;;;;;;;20.70;11.90;;;12.70;99.90;;;;;;5112399;28;20423;-68
2021/10/26 07:47:58;;;;;;;21.80;11.13;;;12.80;99.90;;;;;;5114197;28;20284;-68
2021/10/26 07:50:23;;;;;;;16.70;10.60;;;12.80;99.90;;;;;;5114086;28;20077;-68
2021/10/26 07:52:49;;;;;;;16.00;10.70;;;12.80;99.90;;;;;;5114648;28;20266;-68
2021/10/26 07:55:15;;;;;;;21.02;11.38;;;12.80;99.90;;;;;;5113934;28;20047;-68
2021/10/26 07:57:41;;;;;;;25.25;12.18;;;12.90;99.90;;;;;;5113793;28;20027;-68
2021/10/26 08:00:08;;;;;;;18.70;10.63;;;13.00;99.90;;;;;;5113635;28;20024;-68
2021/10/26 08:02:33;;;;;;;19.35;11.02;;;13.00;99.90;;;;;;5113701;28;20024;-68
2021/10/26 08:04:59;;;;;;;18.00;11.13;;;13.10;99.90;;;;;;5114019;28;20087;-68
2021/10/26 08:07:25;;;;;;;18.40;10.73;;;13.30;99.90;;;;;;5113128;28;20020;-68
2021/10/26 08:09:56;;;;;;;21.08;10.57;;;13.40;99.90;;;;;;5118719;28;20031;-68
2021/10/26 08:12:23;;;;;;;17.50;10.57;;;13.50;99.90;;;;;;5116315;28;20102;-68
2021/10/26 08:14:50;;;;;;;19.63;10.40;;;13.60;99.90;;;;;;5116095;28;20031;-68
2021/10/26 08:17:16;;;;;;;15.25;9.88;;;13.70;99.90;;;;;;5116608;28;20392;-68
2021/10/26 08:19:44;;;;;;;15.25;9.73;;;13.70;99.90;;;;;;5115806;28;20085;-68
2021/10/26 08:22:16;;;;;;;12.73;8.63;;;14.00;99.90;;;;;;5115105;28;20059;-68
2021/10/26 08:24:43;;;;;;;18.95;9.60;;;14.30;99.90;;;;;;5113496;28;20035;-68
2021/10/26 08:27:15;;;;;;;17.10;9.02;;;14.40;99.90;;;;;;5115224;28;20023;-68
2021/10/26 08:37:07;;;;;;;16.30;10.30;;;13.90;99.90;;;;;;5113360;28;20122;-68
2021/10/26 08:39:36;;;;;;;16.10;9.45;;;13.80;99.90;;;;;;5112600;28;20277;-68
2021/10/26 08:42:03;;;;;;;17.80;9.60;;;13.80;99.90;;;;;;5113531;28;20098;-68
2021/10/26 08:44:29;;;;;;;16.88;9.10;;;13.80;99.90;;;;;;5113814;28;20027;-68
2021/10/26 08:46:55;;;;;;;21.30;10.18;;;13.70;99.90;;;;;;5113228;28;20116;-68
2021/10/26 08:49:22;;;;;;;17.33;9.63;;;13.70;99.90;;;;;;5112932;28;20429;-68
2021/10/26 08:51:51;;;;;;;16.02;9.98;;;13.60;99.90;;;;;;5112913;28;20362;-68
2021/10/26 08:54:17;;;;;;;16.73;9.38;;;13.60;99.90;;;;;;5112922;28;20020;-68
2021/10/26 08:56:43;;;;;;;18.92;10.90;;;13.60;99.90;;;;;;5112893;28;20020;-68
2021/10/26 08:59:09;;;;;;;13.57;9.25;;;13.60;99.90;;;;;;5112724;28;20047;-68
2021/10/26 09:01:36;;;;;;;14.73;9.40;;;13.60;99.90;;;;;;5112785;28;20015;-68
2021/10/26 09:04:10;;;;;;;14.90;9.07;;;13.60;99.90;;;;;;5112976;28;20553;-68
2021/10/26 09:06:43;;;;;;;21.10;10.55;;;13.60;99.90;;;;;;5112893;28;20056;-68
2021/10/26 09:09:23;;;;;;;15.38;9.77;;;13.60;99.90;;;;;;5113232;28;20031;-68
2021/10/26 09:16:40;;;;;;;15.38;9.40;;;13.60;99.90;;;;;;5112797;28;20020;-68
2021/10/26 09:17:33;;;;;;;14.57;9.73;;;13.60;99.90;;;;;;5113516;28;20039;-68
2021/10/26 09:20:00;;;;;;;16.83;9.73;;;13.80;99.90;;;;;;5112416;28;20040;-68
2021/10/26 09:22:28;;;;;;;14.75;9.05;;;13.80;99.90;;;;;;5112674;28;20038;-68
2021/10/26 09:25:03;;;;;;;14.85;9.48;;;13.80;99.90;;;;;;5111208;28;20028;-69
2021/10/26 09:27:29;;;;;;;16.50;9.55;;;13.80;99.90;;;;;;5113002;28;20063;-68
2021/10/26 09:30:00;;;;;;;14.60;8.82;;;13.80;99.90;;;;;;5112784;28;20019;-69
2021/10/26 09:32:38;;;;;;;14.70;9.77;;;13.70;99.90;;;;;;5112500;28;20035;-69
2021/10/26 09:35:11;;;;;;;16.40;9.98;;;13.70;99.90;;;;;;5112277;28;20047;-68
2021/10/26 09:37:47;;;;;;;13.82;9.55;;;13.70;99.90;;;;;;5112852;28;20016;-67
2021/10/26 09:40:14;;;;;;;15.32;9.60;;;13.90;99.90;;;;;;5112460;28;20020;-67
2021/10/26 09:42:47;;;;;;;13.80;9.02;;;14.00;99.90;;;;;;5112380;28;20478;-68
2021/10/26 09:45:31;;;;;;;15.15;9.82;;;14.10;99.90;;;;;;5111366;28;20020;-66
2021/10/26 09:48:14;;;;;;;17.95;9.20;;;14.30;99.90;;;;;;5111233;28;20059;-68
2021/10/26 09:50:41;;;;;;;15.35;9.13;;;14.50;99.90;;;;;;5111294;28;20020;-68
2021/10/26 09:53:16;;;;;;;14.43;9.40;;;14.40;99.90;;;;;;5115295;28;20129;-68
2021/10/26 09:55:44;;;;;;;17.38;8.82;;;14.20;99.90;;;;;;5116213;28;20015;-67
2021/10/26 09:58:14;;;;;;;17.35;9.73;;;14.00;99.90;;;;;;5116199;28;20020;-67
2021/10/26 10:00:42;;;;;;;18.10;10.90;;;13.80;99.90;;;;;;5116520;28;20038;-67
2021/10/26 10:03:12;;;;;;;16.08;9.75;;;13.80;99.90;;;;;;5116274;28;20039;-68
2021/10/26 10:05:50;;;;;;;12.70;8.98;;;13.70;99.90;;;;;;5114436;28;20040;-67
2021/10/26 10:08:16;;;;;;;15.43;9.32;;;13.60;99.90;;;;;;5116348;28;20388;-67
2021/10/26 10:10:42;;;;;;;15.30;9.60;;;13.70;99.90;;;;;;5114611;28;20022;-68
2021/10/26 10:13:07;;;;;;;18.80;9.35;;;13.90;99.90;;;;;;5115807;28;20323;-68
2021/10/26 10:15:33;;;;;;;17.63;9.47;;;14.20;99.90;;;;;;5115671;28;20032;-68
2021/10/26 10:18:01;;;;;;;13.23;8.93;;;14.50;99.90;;;;;;5115800;28;20261;-68
2021/10/26 10:20:27;;;;;;;13.98;8.48;;;14.70;99.90;;;;;;5115680;28;20103;-68
2021/10/26 10:22:56;;;;;;;15.10;8.48;;;15.50;99.90;;;;;;5115928;28;20035;-68
2021/10/26 10:25:23;;;;;;;21.45;9.57;;;15.90;99.90;;;;;;5115338;28;20035;-68
2021/10/26 10:27:51;;;;;;;13.65;8.93;;;15.70;99.90;;;;;;5115315;28;20041;-69
2021/10/26 10:30:17;;;;;;;15.27;9.23;;;15.40;99.90;;;;;;5115677;28;20031;-68
2021/10/26 10:32:43;;;;;;;12.52;7.72;;;15.30;99.90;;;;;;5115553;28;20128;-69
2021/10/26 10:35:15;;;;;;;13.45;7.85;;;16.10;99.90;;;;;;5115507;28;20507;-68
2021/10/26 10:37:43;;;;;;;11.18;6.95;;;16.90;99.90;;;;;;5114047;28;20035;-67
2021/10/26 10:40:10;;;;;;;10.73;6.30;;;18.00;99.90;;;;;;5115102;28;20023;-67
2021/10/26 10:42:48;;;;;;;11.25;6.38;;;19.30;99.90;;;;;;5115259;28;20030;-67
2021/10/26 10:45:34;;;;;;;11.30;6.13;;;20.10;99.90;;;;;;5115295;28;20084;-69
2021/10/26 10:48:00;;;;;;;9.80;5.78;;;20.00;99.90;;;;;;5115799;28;20349;-67
2021/10/26 10:50:32;;;;;;;9.07;5.97;;;19.40;99.90;;;;;;5115063;28;20016;-67
2021/10/26 10:53:14;;;;;;;8.40;5.68;;;18.60;99.90;;;;;;5115109;28;20023;-68
2021/10/26 10:55:46;;;;;;;9.30;5.97;;;17.90;99.90;;;;;;5115064;28;20051;-68
2021/10/26 10:58:27;;;;;;;10.15;5.57;;;17.20;99.90;;;;;;5113361;28;20122;-68
2021/10/26 11:01:15;;;;;;;11.60;6.22;;;16.60;99.90;;;;;;5114851;28;20027;-68
2021/10/26 11:03:40;;;;;;;7.95;6.20;;;16.30;99.90;;;;;;5107056;28;20044;-67
2021/10/26 11:06:06;;;;;;;11.32;6.30;;;16.00;99.90;;;;;;5115150;28;20073;-67
2021/10/26 11:08:42;;;;;;;12.55;6.00;;;15.80;99.90;;;;;;5115105;28;20024;-68
2021/10/26 11:11:08;;;;;;;9.70;5.40;;;15.70;99.90;;;;;;5114732;28;20377;-68
2021/10/26 11:13:37;;;;;;;10.35;6.75;;;15.60;99.90;;;;;;5114459;28;20125;-68
2021/10/26 11:16:06;;;;;;;10.23;6.18;;;15.60;99.90;;;;;;5114538;28;20034;-68
2021/10/26 11:18:41;;;;;;;15.75;8.30;;;15.50;99.90;;;;;;5114558;28;20541;-68
2021/10/26 11:21:30;;;;;;;12.70;6.82;;;15.40;99.90;;;;;;5114339;28;20038;-67
2021/10/26 11:23:59;;;;;;;13.23;6.57;;;15.40;99.90;;;;;;5107729;28;20560;-68
2021/10/26 11:26:37;;;;;;;10.23;6.75;;;15.30;99.90;;;;;;5114291;28;20038;-67
2021/10/26 11:29:08;;;;;;;11.02;6.40;;;15.30;99.90;;;;;;5113656;28;20023;-67
2021/10/26 11:31:49;;;;;;;11.45;5.70;;;15.30;99.90;;;;;;5113369;28;20099;-68
2021/10/26 11:34:20;;;;;;;11.43;5.68;;;15.20;99.90;;;;;;5113901;28;20019;-67
2021/10/26 11:36:58;;;;;;;11.43;5.82;;;15.20;99.90;;;;;;5114736;28;20026;-68
2021/10/26 11:39:24;;;;;;;13.15;6.45;;;15.10;99.90;;;;;;5114448;28;20080;-67
2021/10/26 11:41:51;;;;;;;11.25;6.05;;;15.20;99.90;;;;;;5112849;28;20027;-68
2021/10/26 11:44:17;;;;;;;8.25;5.30;;;15.20;99.90;;;;;;5113998;28;20032;-68
2021/10/26 11:46:46;;;;;;;9.88;5.50;;;15.30;99.90;;;;;;5112478;28;20503;-67
2021/10/26 11:49:18;;;;;;;10.73;6.13;;;15.30;99.90;;;;;;5114141;28;20101;-67
2021/10/26 11:51:55;;;;;;;11.68;6.07;;;15.40;99.90;;;;;;5112764;28;20042;-66
2021/10/26 11:54:27;;;;;;;9.25;5.43;;;15.50;99.90;;;;;;5113990;28;20494;-66
2021/10/26 11:56:58;;;;;;;8.05;4.90;;;15.50;99.90;;;;;;5112285;28;20373;-67
2021/10/26 11:59:26;;;;;;;9.23;5.55;;;15.40;99.90;;;;;;5113937;28;20024;-67
2021/10/26 12:01:54;;;;;;;11.93;5.20;;;15.50;99.90;;;;;;5113822;28;20441;-67
2021/10/26 12:04:31;;;;;;;10.43;5.20;;;15.60;99.90;;;;;;5113607;28;20023;-66
2021/10/26 12:07:10;;;;;;;9.15;4.78;;;15.70;99.90;;;;;;5113655;28;20024;-67
2021/10/26 12:09:48;;;;;;;9.73;5.13;;;15.60;99.90;;;;;;5113804;28;20381;-67
2021/10/26 12:12:25;;;;;;;12.40;4.50;;;15.60;99.90;;;;;;5113452;28;20026;-67
2021/10/26 12:14:58;;;;;;;8.55;4.28;;;15.60;99.90;;;;;;5112474;28;20035;-67
2021/10/26 12:17:30;;;;;;;9.05;4.00;;;15.70;99.90;;;;;;5113472;28;20111;-67
2021/10/26 12:19:58;;;;;;;9.98;4.32;;;15.70;99.90;;;;;;5113405;28;20434;-67
2021/10/26 12:22:28;;;;;;;7.25;4.00;;;15.60;99.90;;;;;;5114098;28;20102;-68
2021/10/26 12:25:20;;;;;;;8.73;3.95;;;15.50;99.90;;;;;;5115313;28;20028;-68
2021/10/26 12:27:55;;;;;;;7.63;4.05;;;15.30;99.90;;;;;;5113379;28;20477;-68
2021/10/26 12:30:29;;;;;;;7.88;4.03;;;15.30;99.90;;;;;;5113452;28;20024;-67
2021/10/26 12:33:00;;;;;;;7.07;4.10;;;15.30;99.90;;;;;;5113293;28;20418;-67
2021/10/26 12:35:31;;;;;;;10.93;4.43;;;15.40;99.90;;;;;;5111877;28;20022;-67
2021/10/26 12:38:22;;;;;;;15.68;5.07;;;15.50;99.90;;;;;;5113441;28;20093;-68
2021/10/26 12:40:49;;;;;;;8.32;4.60;;;15.40;99.90;;;;;;5113273;28;20024;-68
2021/10/26 12:43:25;;;;;;;8.52;4.43;;;15.30;99.90;;;;;;5113217;28;20015;-68
2021/10/26 12:45:59;;;;;;;8.05;4.10;;;15.20;99.90;;;;;;5112430;28;20104;-68
2021/10/26 12:48:35;;;;;;;8.80;4.82;;;15.10;99.90;;;;;;5113406;28;20472;-68
2021/10/26 12:51:03;;;;;;;7.75;4.75;;;15.00;99.90;;;;;;5113236;28;20031;-68
2021/10/26 12:53:35;;;;;;;10.63;4.70;;;14.90;99.90;;;;;;5113045;28;20020;-68
2021/10/26 12:56:21;;;;;;;11.88;5.47;;;14.90;99.90;;;;;;5113775;28;20020;-68